CheckWX is a tool to help pilots better visualize weather data.  It is not intended as a substitute for an official pre-flight weather briefing.

13:37:48 UTC

EGPH METAR
Edinburgh Airport
Edinburgh, United Kingdom
Current

18 mins ago

EGPH 171320Z 23003KT CAVOK 04/03 Q1016
Observed
Nov-17 @ 13:20 UTC
Wind
  • 230° at 3 KTS
Visibility
10,000+ meters
Flight Rules
VFR
Cloud Levels
  • Clear skies
Temperature
C / 39°F
Dewpoint
C / 37°F
Humidity
93%
Altimeter
30" Hg
Pressure
1015.92 hPa
Previous

48 mins ago

EGPH 171250Z 25004KT CAVOK 04/03 Q1016
Observed
Nov-17 @ 12:50 UTC
Wind
  • 250° at 4 KTS
Visibility
10,000+ meters
Flight Rules
VFR
Cloud Levels
  • Clear skies
Temperature
C / 39°F
Dewpoint
C / 37°F
Humidity
93%
Altimeter
30" Hg
Pressure
1015.92 hPa
Previous

1 hour ago

EGPH 171220Z 25004KT CAVOK 04/03 Q1016
Observed
Nov-17 @ 12:20 UTC
Wind
  • 250° at 4 KTS
Visibility
10,000+ meters
Flight Rules
VFR
Cloud Levels
  • Clear skies
Temperature
C / 39°F
Dewpoint
C / 37°F
Humidity
93%
Altimeter
30" Hg
Pressure
1015.92 hPa